Time;durP1;ratioP1;P1;durP2;ratioP2;P2;SDS_P1;SDS_P2;PMS_P1;PMS_P2;Temp;Humidity;BMP_temperature;BMP_pressure;BME280_temperature;BME280_humidity;BME280_pressure;Samples;Min_cycle;Max_cycle;Signal;HPM_P1;HPM_P2
2023/03/04 00:02:19;;;;;;;38.22;32.55;;;5.10;45.40;;;;;;20552;6828;314192;-77
2023/03/04 00:04:46;;;;;;;41.90;29.00;;;5.10;45.80;;;;;;20765;6829;118998;-78
2023/03/04 00:07:15;;;;;;;37.57;27.70;;;5.00;45.70;;;;;;20750;6829;123297;-77
2023/03/04 00:09:40;;;;;;;40.73;27.87;;;4.70;45.80;;;;;;20772;6829;117617;-75
2023/03/04 00:12:07;;;;;;;42.47;34.63;;;4.50;46.10;;;;;;20562;6829;307139;-76
2023/03/04 00:14:31;;;;;;;37.97;32.80;;;4.70;46.40;;;;;;20560;6829;282370;-76
2023/03/04 00:16:57;;;;;;;38.97;28.87;;;5.00;45.90;;;;;;20775;6829;118347;-75
2023/03/04 00:19:23;;;;;;;41.72;33.92;;;5.00;46.30;;;;;;20532;6829;336858;-76
2023/03/04 00:21:49;;;;;;;35.17;28.60;;;5.00;45.60;;;;;;20768;6829;117667;-76
2023/03/04 00:24:14;;;;;;;40.70;28.60;;;4.90;45.60;;;;;;20763;6829;117724;-76
2023/03/04 00:26:41;;;;;;;39.60;34.50;;;4.60;45.80;;;;;;20550;6829;310265;-74
2023/03/04 00:29:06;;;;;;;40.53;34.60;;;4.70;46.10;;;;;;20516;6829;279145;-75
2023/03/04 00:31:32;;;;;;;43.50;36.07;;;5.00;45.90;;;;;;20556;6829;346178;-76
2023/03/04 00:33:58;;;;;;;34.90;27.73;;;5.30;45.20;;;;;;20782;6829;117424;-76
2023/03/04 00:36:24;;;;;;;35.97;26.17;;;5.10;45.00;;;;;;20777;6829;117384;-76
2023/03/04 00:38:49;;;;;;;35.42;26.80;;;4.70;45.50;;;;;;20777;6827;118921;-76
2023/03/04 00:41:14;;;;;;;36.97;27.80;;;4.50;46.00;;;;;;20750;6828;118450;-76
2023/03/04 00:43:40;;;;;;;36.83;26.50;;;4.20;46.20;;;;;;20768;6828;118764;-76
2023/03/04 00:46:05;;;;;;;35.83;25.67;;;4.00;46.40;;;;;;20766;6828;117866;-76
2023/03/04 00:48:31;;;;;;;39.27;27.67;;;3.90;46.70;;;;;;20772;6828;117273;-76
2023/03/04 00:50:56;;;;;;;37.80;26.47;;;3.80;46.80;;;;;;20754;6828;117847;-76
2023/03/04 00:53:22;;;;;;;38.25;26.98;;;3.70;47.00;;;;;;20746;6828;123312;-75
2023/03/04 00:55:48;;;;;;;38.87;33.47;;;3.60;47.10;;;;;;20514;6828;323906;-75
2023/03/04 00:58:13;;;;;;;45.70;36.53;;;3.90;47.70;;;;;;20530;6828;342497;-75
2023/03/04 01:00:39;;;;;;;38.13;28.87;;;4.30;47.10;;;;;;20757;6828;117858;-76
2023/03/04 01:03:05;;;;;;;43.13;34.90;;;4.40;46.70;;;;;;20538;6828;278185;-75
2023/03/04 01:05:33;;;;;;;43.97;37.20;;;4.80;46.80;;;;;;20514;6828;310442;-75
2023/03/04 01:07:59;;;;;;;43.13;30.53;;;4.70;46.70;;;;;;20762;6828;118465;-76
2023/03/04 01:10:25;;;;;;;36.50;26.80;;;4.70;46.40;;;;;;20773;6828;117372;-75
2023/03/04 01:12:51;;;;;;;46.00;36.75;;;4.40;47.00;;;;;;20553;6828;308003;-76
2023/03/04 01:15:16;;;;;;;39.27;29.23;;;4.40;47.00;;;;;;20749;6829;127777;-76
2023/03/04 01:17:42;;;;;;;40.53;29.07;;;4.30;46.80;;;;;;20773;6829;119280;-75
2023/03/04 01:20:08;;;;;;;39.10;27.77;;;4.10;47.00;;;;;;20775;6829;117367;-75
2023/03/04 01:22:33;;;;;;;41.67;34.00;;;3.90;47.30;;;;;;20546;6829;279045;-75
2023/03/04 01:24:59;;;;;;;39.63;32.60;;;4.00;47.50;;;;;;20545;6829;311744;-76
2023/03/04 01:27:25;;;;;;;40.90;34.80;;;4.40;46.90;;;;;;20539;6829;278800;-75
2023/03/04 01:29:51;;;;;;;43.83;36.33;;;4.90;45.90;;;;;;20556;6829;307250;-76
2023/03/04 01:32:16;;;;;;;39.73;30.70;;;4.90;46.50;;;;;;20767;6829;117440;-75
2023/03/04 01:34:42;;;;;;;39.63;34.10;;;4.80;45.80;;;;;;20562;6829;308039;-75
2023/03/04 01:37:08;;;;;;;40.13;30.10;;;4.70;45.80;;;;;;20736;6829;118984;-76
2023/03/04 01:39:34;;;;;;;43.47;35.33;;;4.60;46.30;;;;;;20562;6829;337441;-76
2023/03/04 01:42:03;;;;;;;41.17;34.33;;;4.60;46.20;;;;;;20554;6829;337623;-75
2023/03/04 01:44:29;;;;;;;41.13;29.40;;;4.70;45.80;;;;;;20765;6829;118431;-75
2023/03/04 01:46:56;;;;;;;42.50;33.57;;;4.70;45.80;;;;;;20555;6829;307656;-76
2023/03/04 01:49:21;;;;;;;41.08;34.47;;;4.70;46.10;;;;;;20543;6827;278537;-75
2023/03/04 01:51:48;;;;;;;40.53;33.80;;;4.90;45.80;;;;;;20556;6828;322973;-75
2023/03/04 01:54:14;;;;;;;37.37;28.33;;;5.10;45.40;;;;;;20757;6828;118401;-75
2023/03/04 01:56:40;;;;;;;36.45;27.40;;;4.50;45.80;;;;;;20762;6828;117550;-75
2023/03/04 01:59:23;;;;;;;36.93;26.10;;;4.50;45.80;;;;;;20734;6828;119443;-77
2023/03/04 02:01:48;;;;;;;38.87;26.53;;;4.20;46.20;;;;;;20761;6828;117332;-76
2023/03/04 02:04:14;;;;;;;40.78;33.95;;;3.90;46.60;;;;;;20549;6828;278100;-76
2023/03/04 02:06:39;;;;;;;44.67;35.53;;;4.00;46.90;;;;;;20548;6828;278151;-76
2023/03/04 02:09:05;;;;;;;36.07;27.40;;;4.30;46.80;;;;;;20742;6828;117781;-76
2023/03/04 02:11:30;;;;;;;35.70;26.77;;;4.30;46.40;;;;;;20769;6828;118806;-76
2023/03/04 02:13:56;;;;;;;41.47;33.88;;;4.00;46.60;;;;;;20556;6828;307166;-76
2023/03/04 02:16:21;;;;;;;38.50;27.93;;;4.00;46.60;;;;;;20768;6828;117283;-76
2023/03/04 02:18:47;;;;;;;37.03;26.47;;;4.00;46.50;;;;;;20761;6828;114744;-76
2023/03/04 02:21:24;;;;;;;43.70;34.63;;;3.70;46.60;;;;;;20534;6828;307648;-76
2023/03/04 02:23:48;;;;;;;44.20;35.17;;;3.80;47.20;;;;;;20537;6828;337157;-76
2023/03/04 02:26:14;;;;;;;35.13;26.60;;;4.10;46.70;;;;;;20721;6828;120031;-76
2023/03/04 02:28:40;;;;;;;37.83;32.03;;;3.90;46.40;;;;;;20522;6829;341251;-76
2023/03/04 02:31:05;;;;;;;39.08;31.45;;;3.90;46.90;;;;;;20533;6829;341408;-77
2023/03/04 02:33:32;;;;;;;39.13;34.13;;;4.20;46.70;;;;;;20553;6829;308021;-76
2023/03/04 02:35:56;;;;;;;37.10;28.70;;;4.30;45.90;;;;;;20759;6829;117750;-76
2023/03/04 02:38:22;;;;;;;35.15;25.67;;;4.20;45.80;;;;;;20765;6829;117484;-76
2023/03/04 02:40:48;;;;;;;37.13;25.87;;;3.80;46.20;;;;;;20763;6829;117401;-76
2023/03/04 02:43:15;;;;;;;37.23;25.63;;;3.30;47.20;;;;;;20741;6829;119011;-79
2023/03/04 02:45:44;;;;;;;39.83;25.97;;;3.30;47.20;;;;;;20766;6829;119584;-77
2023/03/04 02:48:10;;;;;;;39.13;25.70;;;3.10;47.40;;;;;;20756;6829;118584;-76
2023/03/04 02:50:39;;;;;;;36.67;25.43;;;3.00;47.70;;;;;;20757;6829;118242;-76
2023/03/04 02:53:05;;;;;;;33.43;24.90;;;2.80;47.80;;;;;;20712;6829;118701;-77
2023/03/04 02:55:31;;;;;;;39.00;25.93;;;2.70;48.00;;;;;;20763;6829;117417;-76
2023/03/04 02:57:56;;;;;;;31.73;25.20;;;2.60;48.20;;;;;;20762;6829;117891;-76
2023/03/04 03:00:21;;;;;;;37.63;25.17;;;2.60;48.40;;;;;;20769;6827;119046;-76
2023/03/04 03:02:47;;;;;;;38.93;25.13;;;2.50;48.40;;;;;;20775;6828;117445;-78
2023/03/04 03:05:12;;;;;;;37.43;25.27;;;2.50;48.60;;;;;;20760;6828;119528;-76
2023/03/04 03:07:38;;;;;;;37.67;29.92;;;2.40;48.60;;;;;;20578;6828;305665;-76
2023/03/04 03:10:04;;;;;;;38.30;26.45;;;2.80;48.60;;;;;;20780;6828;117833;-76
2023/03/04 03:12:30;;;;;;;37.03;25.57;;;2.80;48.60;;;;;;20764;6828;117365;-77
2023/03/04 03:14:56;;;;;;;41.33;25.47;;;2.70;48.50;;;;;;20768;6828;117373;-76
2023/03/04 03:17:22;;;;;;;39.63;33.30;;;2.60;48.50;;;;;;20536;6828;315249;-76
2023/03/04 03:19:48;;;;;;;38.13;27.00;;;2.80;48.80;;;;;;20766;6828;117259;-75
2023/03/04 03:22:14;;;;;;;37.30;26.27;;;2.80;49.10;;;;;;20762;6828;117335;-75
2023/03/04 03:24:40;;;;;;;41.20;32.88;;;2.70;48.40;;;;;;20545;6828;312998;-75
2023/03/04 03:27:06;;;;;;;37.17;28.03;;;3.00;49.60;;;;;;20745;6828;117287;-75
2023/03/04 03:29:32;;;;;;;44.80;35.20;;;3.00;48.40;;;;;;20556;6828;307546;-75
2023/03/04 03:31:58;;;;;;;35.70;27.60;;;3.10;48.20;;;;;;20768;6828;118385;-75
2023/03/04 03:34:24;;;;;;;37.73;27.73;;;2.90;48.10;;;;;;20768;6828;118639;-76
2023/03/04 03:36:50;;;;;;;44.93;35.07;;;2.90;48.10;;;;;;20548;6828;308363;-76
2023/03/04 03:39:16;;;;;;;38.15;27.67;;;3.00;48.30;;;;;;20739;6829;117479;-76
2023/03/04 03:41:41;;;;;;;37.80;26.97;;;3.00;48.10;;;;;;20766;6829;118825;-76
2023/03/04 03:44:08;;;;;;;36.63;26.83;;;2.80;48.20;;;;;;20757;6829;117540;-76
2023/03/04 03:46:34;;;;;;;41.53;34.03;;;2.60;48.50;;;;;;20550;6829;336236;-76
2023/03/04 03:48:59;;;;;;;42.85;29.63;;;2.80;48.70;;;;;;20773;6829;119371;-76
2023/03/04 03:51:25;;;;;;;43.47;34.90;;;2.80;48.40;;;;;;20536;6829;278118;-76
2023/03/04 03:53:50;;;;;;;38.43;28.53;;;2.90;48.40;;;;;;20770;6829;117618;-76
2023/03/04 03:56:16;;;;;;;43.92;35.17;;;2.90;48.00;;;;;;20559;6829;311776;-76
2023/03/04 03:58:41;;;;;;;34.30;26.03;;;3.00;48.00;;;;;;20772;6829;123119;-76
2023/03/04 04:01:08;;;;;;;42.80;34.63;;;3.00;48.00;;;;;;20536;6829;307811;-75
2023/03/04 04:03:33;;;;;;;43.50;35.17;;;3.00;48.00;;;;;;20553;6829;307147;-76
2023/03/04 04:05:59;;;;;;;39.70;28.87;;;3.20;47.40;;;;;;20762;6829;118894;-76
2023/03/04 04:08:25;;;;;;;39.80;33.67;;;3.20;47.40;;;;;;20553;6829;277697;-76
2023/03/04 04:10:52;;;;;;;42.73;35.03;;;3.30;47.50;;;;;;20555;6829;312707;-76
2023/03/04 04:13:17;;;;;;;40.17;32.87;;;3.50;46.80;;;;;;20537;6826;279373;-76
2023/03/04 04:15:43;;;;;;;36.87;28.60;;;3.70;46.70;;;;;;20769;6828;117398;-76
2023/03/04 04:18:08;;;;;;;44.53;36.03;;;3.50;46.60;;;;;;20538;6828;337542;-76
2023/03/04 04:20:34;;;;;;;44.87;37.07;;;3.50;46.90;;;;;;20561;6828;307552;-76
2023/03/04 04:23:01;;;;;;;44.50;31.83;;;3.60;46.60;;;;;;20760;6828;117390;-75
2023/03/04 04:25:26;;;;;;;46.70;37.65;;;3.50;46.70;;;;;;20566;6828;307629;-76
2023/03/04 04:27:53;;;;;;;44.40;30.90;;;3.30;47.10;;;;;;20769;6828;117381;-76
2023/03/04 04:30:18;;;;;;;41.77;29.80;;;3.20;47.00;;;;;;20773;6828;118574;-77
2023/03/04 04:32:44;;;;;;;47.83;36.87;;;3.00;47.50;;;;;;20557;6828;301854;-76
2023/03/04 04:35:09;;;;;;;41.80;29.77;;;3.00;47.80;;;;;;20750;6828;143139;-76
2023/03/04 04:37:35;;;;;;;46.40;37.77;;;2.90;47.60;;;;;;20559;6828;312982;-76
2023/03/04 04:40:00;;;;;;;46.15;37.78;;;3.00;47.90;;;;;;20561;6828;277709;-76
2023/03/04 04:42:26;;;;;;;46.85;37.70;;;3.20;47.40;;;;;;20561;6828;312733;-75
2023/03/04 04:44:52;;;;;;;37.35;27.98;;;3.40;47.00;;;;;;20777;6828;118531;-76
2023/03/04 04:47:17;;;;;;;40.23;28.03;;;3.30;47.70;;;;;;20770;6828;120501;-78
2023/03/04 04:49:44;;;;;;;42.10;35.47;;;2.90;47.40;;;;;;20557;6829;308564;-78
2023/03/04 04:52:10;;;;;;;41.47;35.47;;;3.20;47.70;;;;;;20558;6829;307353;-78
2023/03/04 04:54:36;;;;;;;41.22;34.40;;;3.20;47.70;;;;;;20554;6829;307707;-78
2023/03/04 04:57:02;;;;;;;40.57;34.60;;;3.60;46.50;;;;;;20534;6829;337120;-79
2023/03/04 04:59:28;;;;;;;40.60;33.43;;;3.60;46.60;;;;;;20558;6829;308090;-78
2023/03/04 05:01:53;;;;;;;38.17;29.10;;;3.80;46.10;;;;;;20771;6829;117449;-78
2023/03/04 05:04:19;;;;;;;35.97;27.40;;;3.60;46.10;;;;;;20771;6829;117486;-78
2023/03/04 05:06:45;;;;;;;37.63;26.85;;;3.20;46.50;;;;;;20749;6829;118527;-79
2023/03/04 05:09:10;;;;;;;34.17;25.37;;;2.80;47.00;;;;;;20725;6829;117866;-79
2023/03/04 05:11:36;;;;;;;38.67;32.70;;;2.60;47.40;;;;;;20545;6829;340485;-78
2023/03/04 05:14:01;;;;;;;42.03;33.93;;;2.70;47.30;;;;;;20558;6829;337144;-78
2023/03/04 05:16:27;;;;;;;39.07;33.17;;;2.90;46.70;;;;;;20556;6829;313016;-78
2023/03/04 05:18:52;;;;;;;33.53;25.60;;;3.20;46.10;;;;;;20744;6829;118493;-78
2023/03/04 05:21:18;;;;;;;33.20;25.30;;;3.00;45.90;;;;;;20744;6829;117912;-78
2023/03/04 05:23:44;;;;;;;33.97;24.03;;;2.40;46.90;;;;;;20766;6827;119343;-75
2023/03/04 05:26:10;;;;;;;31.17;22.20;;;2.40;46.90;;;;;;20743;6828;117316;-75
2023/03/04 05:28:36;;;;;;;31.53;23.27;;;2.10;47.70;;;;;;20752;6828;117680;-75
2023/03/04 05:31:02;;;;;;;37.17;24.03;;;2.00;47.60;;;;;;20753;6828;155344;-77
2023/03/04 05:33:28;;;;;;;35.07;25.00;;;1.90;48.20;;;;;;20708;6828;120570;-74
2023/03/04 05:35:54;;;;;;;34.20;24.83;;;1.80;48.20;;;;;;20751;6828;118592;-74
2023/03/04 05:38:21;;;;;;;35.93;25.03;;;1.70;48.40;;;;;;20673;6828;117391;-77
2023/03/04 05:40:47;;;;;;;39.17;25.17;;;1.60;48.30;;;;;;20736;6828;117809;-80
2023/03/04 05:43:13;;;;;;;37.07;25.87;;;1.60;48.50;;;;;;20715;6828;118539;-74
2023/03/04 05:45:38;;;;;;;40.47;26.60;;;1.50;48.60;;;;;;20765;6828;117595;-75
2023/03/04 05:48:04;;;;;;;38.83;26.27;;;1.50;48.80;;;;;;20760;6828;118891;-75
2023/03/04 05:50:32;;;;;;;48.50;36.03;;;1.50;48.90;;;;;;20561;6828;281626;-75
2023/03/04 05:52:58;;;;;;;39.30;27.90;;;1.70;49.50;;;;;;20781;6828;121163;-75
2023/03/04 05:55:24;;;;;;;40.10;27.73;;;1.80;49.10;;;;;;20749;6828;118296;-74
2023/03/04 05:57:49;;;;;;;46.10;37.13;;;1.70;49.00;;;;;;20560;6828;308204;-75
2023/03/04 06:00:15;;;;;;;40.60;28.87;;;1.90;49.70;;;;;;20764;6828;119209;-75
2023/03/04 06:02:42;;;;;;;42.57;35.40;;;2.00;49.30;;;;;;20543;6829;342768;-78
2023/03/04 06:05:08;;;;;;;42.80;35.23;;;2.20;49.60;;;;;;20513;6829;314019;-75
2023/03/04 06:07:33;;;;;;;44.37;35.53;;;2.60;48.90;;;;;;20524;6829;312083;-76
2023/03/04 06:09:59;;;;;;;40.97;30.33;;;2.90;48.00;;;;;;20765;6829;118039;-75
2023/03/04 06:12:24;;;;;;;39.97;28.47;;;2.80;47.70;;;;;;20771;6829;121160;-76
2023/03/04 06:14:52;;;;;;;44.55;36.38;;;2.60;48.00;;;;;;20552;6829;306256;-77
2023/03/04 06:17:18;;;;;;;45.23;30.07;;;2.60;48.00;;;;;;20702;6829;118638;-75
2023/03/04 06:19:44;;;;;;;47.20;36.22;;;2.50;47.70;;;;;;20571;6829;307204;-76
2023/03/04 06:22:09;;;;;;;40.40;30.37;;;2.60;47.60;;;;;;20782;6829;118289;-79
2023/03/04 06:24:35;;;;;;;41.13;27.63;;;2.60;47.50;;;;;;20750;6829;118998;-76
2023/03/04 06:27:01;;;;;;;39.70;27.30;;;2.20;48.40;;;;;;20745;6829;117824;-76
2023/03/04 06:29:27;;;;;;;45.90;36.25;;;2.20;48.40;;;;;;20332;6843;314830;-81
2023/03/04 06:31:57;;;;;;;41.70;29.45;;;2.40;48.60;;;;;;20728;6843;117358;-84
2023/03/04 06:34:22;;;;;;;38.07;26.73;;;2.40;48.30;;;;;;20733;6844;117495;-77
2023/03/04 06:36:48;;;;;;;36.85;26.95;;;2.30;48.40;;;;;;20745;6835;118824;-77
2023/03/04 06:39:13;;;;;;;43.87;35.00;;;2.20;48.70;;;;;;20497;6843;283321;-77
2023/03/04 06:41:40;;;;;;;42.75;35.97;;;2.50;49.10;;;;;;20523;6837;280250;-77
2023/03/04 06:44:07;;;;;;;41.70;29.80;;;3.00;48.00;;;;;;20726;6843;117367;-79
2023/03/04 06:46:32;;;;;;;41.17;34.20;;;3.00;48.00;;;;;;20500;6843;309136;-78
2023/03/04 06:48:58;;;;;;;37.93;28.03;;;3.20;47.60;;;;;;20721;6843;119762;-79
2023/03/04 06:51:23;;;;;;;43.20;35.00;;;3.30;47.30;;;;;;20520;6837;280808;-76
2023/03/04 06:53:49;;;;;;;43.10;36.67;;;3.50;47.20;;;;;;20541;6843;278538;-76
2023/03/04 06:56:16;;;;;;;36.27;27.87;;;3.90;46.50;;;;;;20723;6843;117446;-79
2023/03/04 06:58:41;;;;;;;41.03;34.47;;;3.90;46.40;;;;;;20499;6843;283189;-78
2023/03/04 07:01:17;;;;;;;35.80;31.87;;;4.00;46.10;;;;;;20473;6843;279026;-77
2023/03/04 07:03:42;;;;;;;33.67;20.47;;;4.40;45.90;;;;;;20743;6837;120860;-74
2023/03/04 07:06:12;;;;;;;33.78;24.05;;;4.40;47.30;;;;;;20741;6837;118643;-77
2023/03/04 07:08:38;;;;;;;34.53;24.93;;;4.40;47.30;;;;;;20737;6837;118313;-75
2023/03/04 07:11:03;;;;;;;35.30;30.07;;;4.40;47.80;;;;;;20491;6843;309060;-76
2023/03/04 07:13:29;;;;;;;34.00;29.63;;;4.80;47.50;;;;;;20557;6829;280812;-76
2023/03/04 07:15:54;;;;;;;33.83;27.40;;;5.40;46.50;;;;;;20764;6829;117364;-75
2023/03/04 07:18:21;;;;;;;32.22;24.12;;;5.70;46.00;;;;;;20771;6829;118457;-74
2023/03/04 07:20:46;;;;;;;32.00;24.20;;;5.70;46.00;;;;;;20765;6829;117348;-75
2023/03/04 07:23:12;;;;;;;32.97;28.43;;;5.70;46.00;;;;;;20537;6829;307249;-78
2023/03/04 07:25:37;;;;;;;33.25;29.60;;;6.00;45.00;;;;;;20555;6829;310295;-77
2023/03/04 07:28:03;;;;;;;30.83;25.88;;;6.40;43.10;;;;;;20765;6829;121330;-76
2023/03/04 07:30:30;;;;;;;38.80;30.80;;;6.70;41.80;;;;;;20557;6829;278317;-78
2023/03/04 07:32:57;;;;;;;35.20;27.23;;;6.50;42.30;;;;;;20767;6829;117856;-76
2023/03/04 07:35:22;;;;;;;33.70;30.07;;;6.40;41.60;;;;;;20532;6829;307968;-73
2023/03/04 07:37:48;;;;;;;34.80;31.00;;;6.40;41.60;;;;;;20553;6829;307573;-73
2023/03/04 07:40:13;;;;;;;35.13;31.40;;;6.60;41.30;;;;;;20549;6829;312541;-74
2023/03/04 07:42:39;;;;;;;35.20;26.50;;;6.90;41.10;;;;;;20774;6829;118494;-74
2023/03/04 07:45:05;;;;;;;36.87;29.93;;;6.70;41.40;;;;;;20534;6829;338389;-75
2023/03/04 07:47:30;;;;;;;33.87;30.17;;;6.70;41.30;;;;;;20548;6827;337076;-78
2023/03/04 07:49:56;;;;;;;34.20;27.50;;;6.90;41.10;;;;;;20767;6828;121102;-72
2023/03/04 07:52:21;;;;;;;34.33;28.27;;;6.80;41.40;;;;;;20764;6828;119324;-71
2023/03/04 07:54:47;;;;;;;35.78;31.87;;;6.50;41.90;;;;;;20560;6828;308479;-74
2023/03/04 07:57:14;;;;;;;39.13;34.63;;;6.70;42.30;;;;;;20543;6828;308184;-74
2023/03/04 07:59:39;;;;;;;38.10;31.97;;;6.70;41.80;;;;;;20544;6828;309072;-73
2023/03/04 08:02:10;;;;;;;39.97;29.43;;;6.90;41.60;;;;;;20768;6828;117515;-72
2023/03/04 08:04:36;;;;;;;27.53;22.00;;;6.70;41.70;;;;;;20766;6828;117768;-73
2023/03/04 08:07:33;;;;;;;24.27;18.85;;;6.50;42.50;;;;;;20745;6828;118948;-74
2023/03/04 08:09:59;;;;;;;27.55;23.73;;;6.20;43.00;;;;;;20535;6828;280933;-73
2023/03/04 08:12:25;;;;;;;27.60;24.55;;;6.30;43.40;;;;;;20563;6828;337296;-74
2023/03/04 08:14:50;;;;;;;29.77;21.97;;;6.60;43.20;;;;;;20776;6828;121081;-74
2023/03/04 08:17:16;;;;;;;29.07;24.93;;;6.50;42.80;;;;;;20535;6828;307705;-74
2023/03/04 08:19:41;;;;;;;26.85;20.60;;;6.40;42.80;;;;;;20768;6828;118387;-76
2023/03/04 08:22:08;;;;;;;25.30;20.10;;;5.90;43.40;;;;;;20772;6828;117734;-73
2023/03/04 08:24:33;;;;;;;29.87;21.87;;;5.90;43.30;;;;;;20761;6829;119077;-75
2023/03/04 08:27:00;;;;;;;28.52;21.58;;;5.60;44.00;;;;;;20755;6829;117827;-75
2023/03/04 08:29:27;;;;;;;28.30;24.53;;;5.50;44.50;;;;;;20533;6829;342153;-76
2023/03/04 08:31:53;;;;;;;27.03;20.37;;;5.60;44.70;;;;;;20772;6829;117336;-76
2023/03/04 08:34:18;;;;;;;25.52;18.60;;;5.60;44.40;;;;;;20769;6829;119233;-75
2023/03/04 08:36:44;;;;;;;24.10;18.33;;;5.30;44.70;;;;;;20767;6829;121479;-76
2023/03/04 08:39:12;;;;;;;29.23;25.40;;;5.20;45.10;;;;;;20531;6829;308115;-74
2023/03/04 08:41:39;;;;;;;29.75;25.10;;;5.70;45.10;;;;;;20555;6829;337506;-73
2023/03/04 08:44:04;;;;;;;24.37;19.77;;;5.80;45.20;;;;;;20769;6829;117457;-74
2023/03/04 08:46:31;;;;;;;23.75;18.77;;;5.50;45.00;;;;;;20771;6829;117783;-74
2023/03/04 08:48:56;;;;;;;24.00;18.53;;;5.50;45.00;;;;;;20768;6829;119310;-74
2023/03/04 08:51:22;;;;;;;28.90;24.27;;;5.30;45.40;;;;;;20519;6829;282462;-74
2023/03/04 08:53:47;;;;;;;23.65;18.67;;;5.40;45.40;;;;;;20743;6829;120450;-76
2023/03/04 08:56:13;;;;;;;26.97;24.03;;;5.40;45.20;;;;;;20554;6829;302807;-82
2023/03/04 08:58:39;;;;;;;25.80;22.60;;;5.60;45.60;;;;;;20552;6827;337903;-77
2023/03/04 09:01:08;;;;;;;21.52;18.05;;;5.90;44.90;;;;;;20749;6828;117771;-71
2023/03/04 09:03:34;;;;;;;25.03;22.03;;;5.90;44.90;;;;;;20542;6828;311016;-74
2023/03/04 09:05:59;;;;;;;25.57;22.80;;;5.90;44.70;;;;;;20554;6828;283531;-75
2023/03/04 09:08:25;;;;;;;22.23;18.23;;;6.10;44.20;;;;;;20763;6828;117800;-75
2023/03/04 09:10:50;;;;;;;21.50;17.53;;;5.90;44.20;;;;;;20773;6828;119471;-74
2023/03/04 09:13:16;;;;;;;23.08;20.58;;;5.60;44.70;;;;;;20538;6828;308109;-75
2023/03/04 09:15:45;;;;;;;22.60;20.20;;;5.60;45.30;;;;;;20504;6828;280574;-76
2023/03/04 09:18:10;;;;;;;23.92;21.42;;;5.90;45.20;;;;;;20510;6828;282054;-75
2023/03/04 09:20:37;;;;;;;22.20;17.57;;;6.10;44.60;;;;;;20760;6828;118491;-75
2023/03/04 09:23:02;;;;;;;23.30;20.77;;;6.10;44.60;;;;;;20493;6828;309921;-75
2023/03/04 09:25:28;;;;;;;23.85;18.42;;;6.10;44.30;;;;;;20646;6828;118088;-72
2023/03/04 09:27:53;;;;;;;21.33;17.33;;;6.00;44.20;;;;;;20784;6828;117678;-75
2023/03/04 09:30:19;;;;;;;25.43;21.87;;;5.70;44.50;;;;;;20565;6828;317445;-73
2023/03/04 09:32:45;;;;;;;23.93;21.43;;;5.70;45.00;;;;;;20558;6828;281428;-73
2023/03/04 09:35:11;;;;;;;25.03;21.40;;;6.10;44.90;;;;;;20528;6828;310665;-74
2023/03/04 09:37:37;;;;;;;22.33;17.60;;;6.10;44.90;;;;;;20763;6829;119506;-74
2023/03/04 09:40:03;;;;;;;25.53;22.00;;;6.10;44.80;;;;;;20554;6829;279431;-75
2023/03/04 09:42:35;;;;;;;25.33;22.05;;;6.10;44.90;;;;;;20544;6829;336997;-75
2023/03/04 09:45:02;;;;;;;24.43;21.80;;;6.30;44.50;;;;;;20543;6829;308551;-76
2023/03/04 09:47:27;;;;;;;23.00;19.50;;;6.50;44.20;;;;;;20555;6829;325480;-75
2023/03/04 09:49:53;;;;;;;20.95;18.67;;;6.60;43.70;;;;;;20539;6829;299499;-74
2023/03/04 09:52:29;;;;;;;19.58;15.60;;;6.70;43.40;;;;;;20756;6829;117499;-74
2023/03/04 09:55:11;;;;;;;21.70;19.30;;;6.40;43.50;;;;;;20517;6829;320134;-74
2023/03/04 09:57:46;;;;;;;18.90;16.00;;;6.40;43.80;;;;;;20753;6829;117793;-74
2023/03/04 10:00:18;;;;;;;22.80;20.40;;;6.20;44.00;;;;;;20543;6829;302793;-74
2023/03/04 10:03:04;;;;;;;21.70;18.17;;;6.20;44.10;;;;;;20742;6829;119673;-73
2023/03/04 10:05:33;;;;;;;53.53;48.03;;;6.10;44.00;;;;;;20481;6829;307627;-75
2023/03/04 10:07:58;;;;;;;22.03;19.73;;;6.10;43.90;;;;;;20538;6829;314075;-75
2023/03/04 10:10:24;;;;;;;21.03;17.23;;;6.40;43.90;;;;;;20749;6827;118528;-76
2023/03/04 10:12:51;;;;;;;19.75;16.02;;;6.30;43.90;;;;;;20732;6828;117286;-75
2023/03/04 10:15:19;;;;;;;19.93;15.60;;;6.10;44.30;;;;;;20747;6828;117636;-74
2023/03/04 10:17:45;;;;;;;18.27;14.40;;;5.90;44.70;;;;;;20450;6828;117747;-72
2023/03/04 10:20:20;;;;;;;22.20;19.73;;;5.80;45.00;;;;;;20544;6828;308022;-72
2023/03/04 10:22:49;;;;;;;21.07;18.67;;;5.90;45.00;;;;;;20555;6828;278670;-73
2023/03/04 10:25:14;;;;;;;21.13;18.93;;;6.30;44.10;;;;;;20535;6828;281101;-72
2023/03/04 10:27:40;;;;;;;22.07;19.73;;;6.70;43.50;;;;;;20555;6828;313484;-75
2023/03/04 10:30:06;;;;;;;22.37;19.77;;;6.90;43.10;;;;;;20559;6828;307745;-74
2023/03/04 10:32:31;;;;;;;18.30;15.93;;;7.00;42.90;;;;;;20739;6828;117549;-75
2023/03/04 10:34:57;;;;;;;22.43;19.30;;;6.80;43.00;;;;;;20540;6828;337634;-76
2023/03/04 10:37:23;;;;;;;22.33;19.97;;;6.70;43.00;;;;;;20516;6828;302320;-73
2023/03/04 10:39:48;;;;;;;22.93;17.80;;;6.80;43.00;;;;;;20756;6828;117348;-73
2023/03/04 10:42:18;;;;;;;23.75;21.02;;;6.60;42.90;;;;;;20546;6828;312900;-74
2023/03/04 10:44:43;;;;;;;23.00;17.17;;;6.60;43.30;;;;;;20745;6828;117406;-73
2023/03/04 10:47:09;;;;;;;22.58;16.80;;;6.40;43.50;;;;;;20669;6828;118054;-74
2023/03/04 10:49:34;;;;;;;23.73;20.30;;;6.20;44.40;;;;;;20547;6829;315447;-74
2023/03/04 10:52:02;;;;;;;23.77;21.33;;;6.20;44.40;;;;;;20496;6829;278167;-73
2023/03/04 10:54:40;;;;;;;25.63;22.83;;;6.50;44.10;;;;;;20528;6829;312571;-75
2023/03/04 10:57:26;;;;;;;25.63;22.57;;;6.70;43.30;;;;;;20503;6829;306799;-75
2023/03/04 10:59:55;;;;;;;24.47;21.87;;;6.90;43.30;;;;;;20537;6829;311887;-75
2023/03/04 11:02:25;;;;;;;26.10;22.17;;;6.90;42.90;;;;;;20551;6829;307684;-74
2023/03/04 11:04:50;;;;;;;24.90;21.58;;;7.00;43.10;;;;;;20547;6829;337447;-73
2023/03/04 11:07:15;;;;;;;25.52;19.27;;;7.00;42.70;;;;;;20716;6829;127712;-75
2023/03/04 11:09:41;;;;;;;22.23;17.13;;;6.80;43.10;;;;;;20769;6829;117642;-78
2023/03/04 11:12:14;;;;;;;24.90;21.40;;;6.40;43.50;;;;;;20545;6829;278236;-77
2023/03/04 11:14:41;;;;;;;24.40;21.65;;;6.40;44.00;;;;;;20554;6829;311322;-75
2023/03/04 11:17:25;;;;;;;29.37;25.47;;;6.70;43.80;;;;;;20540;6829;278653;-75
2023/03/04 11:19:58;;;;;;;20.57;17.53;;;6.90;43.40;;;;;;20763;6829;117467;-75
2023/03/04 11:22:24;;;;;;;24.30;17.43;;;6.70;43.30;;;;;;20772;6827;117394;-75
2023/03/04 11:24:49;;;;;;;21.30;16.57;;;6.40;43.70;;;;;;20757;6828;117629;-77
2023/03/04 11:27:28;;;;;;;22.62;14.13;;;5.90;44.30;;;;;;20353;6828;119806;-76
2023/03/04 11:30:17;;;;;;;20.53;16.50;;;5.90;44.30;;;;;;19695;7172;120142;-75
2023/03/04 11:32:42;;;;;;;22.67;19.98;;;5.70;44.60;;;;;;20420;6828;311866;-75
2023/03/04 11:35:15;;;;;;;22.10;17.17;;;6.00;44.70;;;;;;20669;6843;117634;-74
2023/03/04 11:37:40;;;;;;;21.73;19.47;;;6.00;44.40;;;;;;20476;6843;337337;-75
2023/03/04 11:40:11;;;;;;;19.73;16.23;;;6.20;44.10;;;;;;20631;6858;118079;-76
2023/03/04 11:42:47;;;;;;;24.17;19.60;;;6.30;44.00;;;;;;20475;6852;308379;-73
2023/03/04 11:45:16;;;;;;;21.98;19.77;;;6.50;44.40;;;;;;20445;6847;338677;-75
2023/03/04 11:47:47;;;;;;;18.20;15.90;;;6.80;42.80;;;;;;20658;6858;118893;-76
2023/03/04 11:50:13;;;;;;;22.40;20.07;;;6.80;42.80;;;;;;20471;6843;285690;-78
2023/03/04 11:52:59;;;;;;;24.25;21.62;;;6.90;42.70;;;;;;20496;6843;308718;-75
2023/03/04 11:55:40;;;;;;;22.00;16.93;;;7.20;42.50;;;;;;20700;6843;119273;-76
2023/03/04 11:58:39;;;;;;;22.77;16.13;;;7.10;42.40;;;;;;20715;6843;121974;-74
2023/03/04 12:01:25;;;;;;;23.05;20.60;;;6.80;42.90;;;;;;19856;6843;312942;-73
2023/03/04 12:03:50;;;;;;;21.57;18.27;;;6.90;43.10;;;;;;20715;6843;117598;-75
2023/03/04 12:06:36;;;;;;;23.33;20.83;;;7.00;42.80;;;;;;20464;6843;279516;-76
2023/03/04 12:09:02;;;;;;;23.40;20.90;;;7.10;42.90;;;;;;20484;6843;343446;-73
2023/03/04 12:11:32;;;;;;;25.00;22.40;;;7.40;42.60;;;;;;20510;6843;280908;-74
2023/03/04 12:14:12;;;;;;;24.77;22.13;;;7.70;42.00;;;;;;20486;6843;310391;-78
2023/03/04 12:16:58;;;;;;;25.83;23.02;;;7.80;41.30;;;;;;20496;6843;307768;-74
2023/03/04 12:20:04;;;;;;;23.03;20.70;;;8.00;41.50;;;;;;20474;6843;308041;-76
2023/03/04 12:22:33;;;;;;;24.60;22.00;;;8.40;40.60;;;;;;20538;6829;278300;-78
2023/03/04 12:25:03;;;;;;;24.90;22.30;;;8.50;40.70;;;;;;20496;6829;308565;-77
2023/03/04 12:27:51;;;;;;;21.53;19.23;;;8.40;40.60;;;;;;20758;6844;117668;-81
2023/03/04 12:30:37;;;;;;;23.53;18.70;;;8.30;41.00;;;;;;20693;6855;117609;-82